Strona główna
METAR-TAF:

METAR-TAF

Lotnisko :

Araraquara, São Paulo, Brazylia

Szerokość geograficzna: 21-48-16S, Długość geograficzna: 048-08-25W, wysokość: 711 m

Aktualna obserwacja pogody

Raport powstał 27 minut temu, godzina 00:00 UTC
Wiatr 2 kt od południowy wschód
Temperatura 26°C
Wilgotność 48%
Ciśnienie 1017 hPa
Widzialność 10 km lub więcej
Brak chmur poniżej 1500 m i brak chmur cumulonimbus

METAR: SBAQ 170000Z 13002KT CAVOK 26/14 Q1017

czas: 21:27 (00:27 UTC)


TAF: brakujący

Obserwacja i prognoza pogody dla ponad 4000 lotnisk (raport METAR i TAF).

Dostępne stacje oznaczono żółtymi i czerwonymi punktami na mapie.

Najedź kursorem aby zobaczyć nazwę stacji.

Kliknij aby zobaczyć obserwacje i prognozy pogody.

Aby zmienić mapę: kliknij na zielony przycisk z czarnym krzyżykiem, aby powiększyć; na zielony przycisk z myślnikiem, aby pomniejszyć; na zielone strzałki, aby przejść do map sąsiednich.


METAR-TAF: